createdAt,value
2019-05-21T00:01:28.739Z,98889.06
2019-05-21T00:04:30.658Z,98893.63
2019-05-21T00:07:32.900Z,98893.77
2019-05-21T00:10:34.934Z,98896.06
2019-05-21T00:13:36.844Z,98900.42
2019-05-21T00:16:38.873Z,98899.67
2019-05-21T00:19:40.741Z,98905.88
2019-05-21T00:22:42.697Z,98893.53
2019-05-21T00:25:44.706Z,98891.59
2019-05-21T00:29:24.062Z,98894.36
2019-05-21T00:33:05.200Z,98897.20
2019-05-21T00:36:45.999Z,98896.31
2019-05-21T00:40:25.223Z,98909.08
2019-05-21T00:43:48.868Z,98916.20
2019-05-21T00:46:50.838Z,98909.09
2019-05-21T00:49:52.832Z,98903.83
2019-05-21T00:52:54.805Z,98915.01
2019-05-21T00:55:56.844Z,98920.58
2019-05-21T00:58:58.857Z,98918.50
2019-05-21T01:02:00.880Z,98922.55
2019-05-21T01:05:04.018Z,98926.98
2019-05-21T01:08:05.998Z,98929.86
2019-05-21T01:11:07.911Z,98926.55
2019-05-21T01:14:09.871Z,98927.43
2019-05-21T01:17:11.836Z,98930.92
2019-05-21T01:20:14.345Z,98934.17
2019-05-21T01:23:16.265Z,98936.28
2019-05-21T01:26:18.222Z,98940.03
2019-05-21T01:29:20.142Z,98941.87
2019-05-21T01:32:22.175Z,98928.27
2019-05-21T01:35:24.115Z,98928.00
2019-05-21T01:38:26.237Z,98929.65
2019-05-21T01:41:28.186Z,98926.23
2019-05-21T01:44:30.187Z,98927.13
2019-05-21T01:47:32.111Z,98929.38
2019-05-21T01:50:34.216Z,98920.39
2019-05-21T01:53:36.230Z,98926.86
2019-05-21T01:56:38.191Z,98935.11
2019-05-21T01:59:40.162Z,98936.08
2019-05-21T02:02:42.245Z,98936.80
2019-05-21T02:05:44.249Z,98943.48
2019-05-21T02:08:46.265Z,98947.30
2019-05-21T02:11:48.204Z,98949.55
2019-05-21T02:14:50.162Z,98956.16
2019-05-21T02:17:52.085Z,98949.59
2019-05-21T02:20:54.049Z,98947.69
2019-05-21T02:23:56.010Z,98939.78
2019-05-21T02:26:58.634Z,98943.58
2019-05-21T02:30:00.693Z,98947.00
2019-05-21T02:33:02.723Z,98942.92
2019-05-21T02:36:04.759Z,98949.17
2019-05-21T02:39:07.280Z,98945.68
2019-05-21T02:42:09.253Z,98947.39
2019-05-21T02:45:11.770Z,98942.70
2019-05-21T02:48:13.806Z,98937.28
2019-05-21T02:51:15.910Z,98933.41
2019-05-21T02:54:17.898Z,98928.78
2019-05-21T02:57:19.932Z,98933.32
2019-05-21T03:00:41.184Z,98933.32
2019-05-21T03:03:43.323Z,98928.45
2019-05-21T03:06:45.567Z,98933.30
2019-05-21T03:09:48.560Z,98942.23
2019-05-21T03:12:50.511Z,98938.92
2019-05-21T03:15:52.585Z,98937.06
2019-05-21T03:18:54.524Z,98935.05
2019-05-21T03:21:56.730Z,98930.11
2019-05-21T03:25:02.172Z,98925.44
2019-05-21T03:28:02.641Z,98921.72
2019-05-21T03:31:04.625Z,98926.37
2019-05-21T03:34:06.696Z,98930.32
2019-05-21T03:37:08.721Z,98932.83
2019-05-21T03:40:14.959Z,98938.20
2019-05-21T03:43:16.927Z,98937.50
2019-05-21T03:46:18.935Z,98923.93
2019-05-21T03:49:21.431Z,98924.69
2019-05-21T03:52:23.481Z,98936.66
2019-05-21T03:55:25.556Z,98947.39
2019-05-21T03:58:27.502Z,98947.39
2019-05-21T04:01:29.479Z,98950.64
2019-05-21T04:04:31.412Z,98945.52
2019-05-21T04:07:33.471Z,98955.64
2019-05-21T04:10:35.568Z,98964.19
2019-05-21T04:13:37.500Z,98967.34
2019-05-21T04:16:50.332Z,98962.00
2019-05-21T04:19:52.858Z,98957.39
2019-05-21T04:22:54.933Z,98950.80
2019-05-21T04:25:56.857Z,98955.49
2019-05-21T04:28:58.878Z,98954.33
2019-05-21T04:32:00.936Z,98953.69
2019-05-21T04:35:05.059Z,98958.88
2019-05-21T04:38:07.704Z,98961.08
2019-05-21T04:41:09.833Z,98963.36
2019-05-21T04:44:11.790Z,98965.73
2019-05-21T04:47:13.838Z,98958.21
2019-05-21T04:50:15.949Z,98963.61
2019-05-21T04:53:18.112Z,98967.12
2019-05-21T04:56:20.205Z,98960.59
2019-05-21T04:59:22.290Z,98969.19
2019-05-21T05:02:24.302Z,98966.06
2019-05-21T05:05:26.321Z,98964.67
2019-05-21T05:08:28.384Z,98965.01
2019-05-21T05:11:30.391Z,98973.95
2019-05-21T05:14:32.298Z,98969.87
2019-05-21T05:17:34.419Z,98966.63
2019-05-21T05:20:36.496Z,98962.61
2019-05-21T05:23:38.564Z,98964.63
2019-05-21T05:26:40.564Z,98962.81
2019-05-21T05:29:42.542Z,98962.22
2019-05-21T05:32:44.515Z,98959.84
2019-05-21T05:35:46.556Z,98967.47
2019-05-21T05:38:48.833Z,98970.42
2019-05-21T05:41:51.270Z,98984.16
2019-05-21T05:44:53.322Z,98980.59
2019-05-21T05:47:55.353Z,98977.41
2019-05-21T05:50:59.161Z,98970.91
2019-05-21T05:54:01.177Z,98972.70
2019-05-21T05:57:03.159Z,98979.41
2019-05-21T06:00:08.473Z,98974.95
2019-05-21T06:03:10.538Z,98966.81
2019-05-21T06:06:12.751Z,98968.23
2019-05-21T06:09:14.825Z,98964.05
2019-05-21T06:12:16.845Z,98966.66
2019-05-21T06:15:19.088Z,98960.36
2019-05-21T06:18:21.048Z,98962.58
2019-05-21T06:21:23.101Z,98954.97
2019-05-21T06:24:25.051Z,98955.73
2019-05-21T06:27:27.105Z,98957.33
2019-05-21T06:30:29.084Z,98964.16
2019-05-21T06:33:32.451Z,98969.00
2019-05-21T06:36:34.605Z,98961.19
2019-05-21T06:39:36.664Z,98964.05
2019-05-21T06:42:38.719Z,98953.66
2019-05-21T06:45:41.254Z,98960.77
2019-05-21T06:48:43.217Z,98960.72
2019-05-21T06:51:45.206Z,98971.30
2019-05-21T06:54:47.205Z,98970.79
2019-05-21T06:57:49.253Z,98968.20
2019-05-21T07:00:51.283Z,98967.39
2019-05-21T07:03:53.318Z,98974.30
2019-05-21T07:06:55.317Z,98973.73
2019-05-21T07:09:57.443Z,98978.95
2019-05-21T07:12:59.478Z,98988.27
2019-05-21T07:16:01.533Z,98988.45
2019-05-21T07:19:03.814Z,98987.47
2019-05-21T07:22:12.631Z,98993.67
2019-05-21T07:25:10.330Z,98989.35
2019-05-21T07:28:12.386Z,98992.90
2019-05-21T07:31:17.393Z,98994.86
2019-05-21T07:34:18.348Z,99005.11
2019-05-21T07:37:20.323Z,98999.69
2019-05-21T07:40:22.534Z,99001.95
2019-05-21T07:43:24.667Z,99004.93
2019-05-21T07:46:26.683Z,99002.90
2019-05-21T07:49:28.726Z,99002.61
2019-05-21T07:52:30.786Z,98999.42
2019-05-21T07:55:32.736Z,98996.71
2019-05-21T07:58:34.757Z,98997.44
2019-05-21T08:01:36.722Z,98999.83
2019-05-21T08:04:38.842Z,98990.50
2019-05-21T08:07:40.920Z,98993.48
2019-05-21T08:10:42.977Z,98993.79
2019-05-21T08:13:44.968Z,98994.15
2019-05-21T08:16:46.941Z,98988.70
2019-05-21T08:19:49.002Z,98990.77
2019-05-21T08:22:50.993Z,98990.16
2019-05-21T08:25:53.041Z,98984.78
2019-05-21T08:28:56.012Z,98977.73
2019-05-21T08:31:58.223Z,98975.13
2019-05-21T08:35:00.189Z,98980.39
2019-05-21T08:38:02.178Z,98983.65
2019-05-21T08:41:05.511Z,98985.58
2019-05-21T12:51:58.552Z,98956.80
2019-05-21T12:55:00.661Z,98961.27
2019-05-21T12:58:02.540Z,98959.27
2019-05-21T13:01:04.645Z,98958.88
2019-05-21T13:04:06.603Z,98957.16
2019-05-21T13:07:08.473Z,98956.78
2019-05-21T13:10:10.840Z,98957.45
2019-05-21T13:13:12.775Z,98957.05
2019-05-21T13:16:14.664Z,98957.83
2019-05-21T13:19:16.584Z,98949.05
2019-05-21T13:22:20.274Z,98947.85
2019-05-21T13:25:22.220Z,98949.11
2019-05-21T13:28:24.163Z,98946.62
2019-05-21T13:31:26.080Z,98943.50
2019-05-21T13:34:27.974Z,98939.92
2019-05-21T13:37:29.895Z,98939.08
2019-05-21T13:40:33.872Z,98931.06
2019-05-21T13:43:35.848Z,98929.34
2019-05-21T13:46:37.796Z,98931.58
2019-05-21T13:49:39.762Z,98933.45
2019-05-21T13:52:41.739Z,98923.84
2019-05-21T13:55:43.875Z,98923.34
2019-05-21T13:58:46.165Z,98919.59
2019-05-21T14:01:48.260Z,98914.39
2019-05-21T14:04:50.324Z,98913.84
2019-05-21T14:07:52.226Z,98911.20
2019-05-21T14:10:54.372Z,98908.61
2019-05-21T14:13:56.301Z,98905.61
2019-05-21T14:16:58.236Z,98906.30
2019-05-21T14:20:00.165Z,98903.52
2019-05-21T14:23:05.274Z,98903.41
2019-05-21T14:26:07.338Z,98898.80
2019-05-21T14:29:09.345Z,98895.80
2019-05-21T14:32:11.269Z,98891.77
2019-05-21T14:35:14.471Z,98889.52
2019-05-21T14:38:16.371Z,98887.41
2019-05-21T14:41:18.333Z,98892.53
2019-05-21T14:44:20.438Z,98899.46
2019-05-21T14:47:22.358Z,98895.98
2019-05-21T14:50:24.668Z,98893.28
2019-05-21T14:53:26.554Z,98895.33
2019-05-21T14:56:29.130Z,98899.92
2019-05-21T14:59:31.094Z,98902.23
2019-05-21T15:02:32.993Z,98897.09
2019-05-21T15:05:36.849Z,98897.75
2019-05-21T15:08:38.780Z,98905.23
2019-05-21T15:11:40.686Z,98897.41
2019-05-21T15:14:44.515Z,98893.73
2019-05-21T15:17:46.528Z,98891.34
2019-05-21T15:20:54.472Z,98887.73
2019-05-21T15:23:56.458Z,98888.09
2019-05-21T15:26:58.554Z,98899.83
2019-05-21T15:30:00.521Z,98897.03
2019-05-21T15:33:02.555Z,98894.99
2019-05-21T15:36:04.580Z,98899.17
2019-05-21T15:39:07.110Z,98907.57
2019-05-21T15:42:08.994Z,98904.62
2019-05-21T15:45:12.125Z,98896.80
2019-05-21T15:48:14.492Z,98895.88
2019-05-21T15:51:17.446Z,98885.76
2019-05-21T15:54:19.415Z,98889.45
2019-05-21T15:57:23.253Z,98889.06
2019-05-21T16:00:25.558Z,98889.14
2019-05-21T16:03:29.307Z,98887.98
2019-05-21T16:06:31.234Z,98885.23
2019-05-21T16:09:33.198Z,98890.43
2019-05-21T16:12:35.090Z,98889.07
2019-05-21T16:15:37.115Z,98888.75
2019-05-21T16:18:39.027Z,98888.28
2019-05-21T16:21:41.213Z,98888.02
2019-05-21T16:24:43.195Z,98872.84
2019-05-21T16:27:47.373Z,98871.99
2019-05-21T16:30:49.376Z,98881.88
2019-05-21T16:33:51.480Z,98879.85
2019-05-21T16:36:53.726Z,98877.91
2019-05-21T16:39:56.518Z,98877.06
2019-05-21T16:42:58.398Z,98884.72
2019-05-21T16:46:00.538Z,98887.73
2019-05-21T16:49:02.450Z,98896.81
2019-05-21T16:52:04.347Z,98909.91
2019-05-21T16:55:06.633Z,98923.69
2019-05-21T16:58:09.810Z,98924.11
2019-05-21T17:01:13.306Z,98941.14
2019-05-21T17:04:15.232Z,98963.13
2019-05-21T17:07:17.084Z,98976.88
2019-05-21T17:10:18.940Z,98975.16
2019-05-21T17:13:20.808Z,98979.48
2019-05-21T17:16:25.028Z,98979.92
2019-05-21T17:19:26.951Z,98970.47
2019-05-21T17:22:29.838Z,98965.47
2019-05-21T17:25:31.681Z,98973.58
2019-05-21T17:28:35.111Z,98976.16
2019-05-21T17:31:36.926Z,98975.13
2019-05-21T17:34:41.135Z,98966.27
2019-05-21T17:37:43.024Z,98964.03
2019-05-21T17:40:45.033Z,98969.98
2019-05-21T17:43:48.463Z,98973.77
2019-05-21T17:46:50.957Z,98966.30
2019-05-21T17:49:52.957Z,98959.09
2019-05-21T17:52:55.671Z,98952.62
2019-05-21T17:55:57.577Z,98947.64
2019-05-21T17:59:01.685Z,98949.00
2019-05-21T18:02:05.558Z,98944.92
2019-05-21T18:05:10.741Z,98944.05
2019-05-21T18:08:12.915Z,98946.80
2019-05-21T18:11:15.481Z,98950.83
2019-05-21T18:14:17.882Z,98947.13
2019-05-21T18:17:21.646Z,98940.94
2019-05-21T18:20:23.737Z,98924.63
2019-05-21T18:23:27.250Z,98924.63
2019-05-21T18:26:29.191Z,98917.28
2019-05-21T18:29:32.510Z,98922.70
2019-05-21T18:32:34.522Z,98910.78
2019-05-21T18:35:39.785Z,98901.33
2019-05-21T18:38:41.742Z,98897.48
2019-05-21T18:41:43.761Z,98899.63
2019-05-21T18:44:47.014Z,98891.59
2019-05-21T18:47:49.001Z,98898.31
2019-05-21T18:50:55.765Z,98903.02
2019-05-21T18:53:57.706Z,98900.44
2019-05-21T18:56:59.666Z,98902.14
2019-05-21T19:00:10.556Z,98902.69
2019-05-21T19:03:13.756Z,98905.68
2019-05-21T19:06:18.934Z,98915.44
2019-05-21T19:09:21.030Z,98911.85
2019-05-21T19:12:37.578Z,98905.03
2019-05-21T19:15:33.992Z,98907.92
2019-05-21T19:18:36.240Z,98904.79
2019-05-21T19:21:45.206Z,98915.54
2019-05-21T19:24:47.276Z,98917.27
2019-05-21T19:27:51.883Z,98928.86
2019-05-21T19:30:53.951Z,98930.06
2019-05-21T19:33:55.925Z,98936.31
2019-05-21T19:36:57.816Z,98938.73
2019-05-21T19:40:01.993Z,98947.69
2019-05-21T19:43:05.249Z,98955.52
2019-05-21T19:46:13.073Z,98961.96
2019-05-21T19:49:14.989Z,98979.86
2019-05-21T19:52:17.031Z,98991.00
2019-05-21T19:55:19.787Z,99004.36
2019-05-21T19:58:23.041Z,99015.64
2019-05-21T20:01:25.207Z,99017.72
2019-05-21T20:04:27.685Z,99013.45
2019-05-21T20:07:31.105Z,99011.20
2019-05-21T20:10:34.257Z,99009.08
2019-05-21T20:13:36.470Z,99017.72
2019-05-21T20:16:40.570Z,99024.45
2019-05-21T20:19:45.768Z,99029.57
2019-05-21T20:22:47.871Z,99036.16
2019-05-21T20:25:56.646Z,99033.66
2019-05-21T20:28:57.116Z,99038.95
2019-05-21T20:32:00.322Z,99046.05
2019-05-21T20:35:04.067Z,99042.39
2019-05-21T20:38:09.870Z,99032.75
2019-05-21T20:41:12.313Z,99020.80
2019-05-21T20:44:15.596Z,99021.23
2019-05-21T20:47:18.286Z,99015.31
2019-05-21T20:50:22.363Z,99016.33
2019-05-21T20:53:25.009Z,99007.49
2019-05-21T20:56:26.923Z,99004.19
2019-05-21T20:59:28.876Z,98998.34
2019-05-21T21:02:32.906Z,99004.06
2019-05-21T21:05:34.985Z,99016.70
2019-05-21T21:08:37.160Z,99022.51
2019-05-21T21:11:40.484Z,99024.15
2019-05-21T21:14:43.870Z,99021.62
2019-05-21T21:17:45.880Z,99016.09
2019-05-21T21:20:48.243Z,99016.34
2019-05-21T21:23:52.185Z,99016.03
2019-05-21T21:26:54.204Z,99001.59
2019-05-21T21:29:56.176Z,98984.12
2019-05-21T21:32:59.488Z,98966.22
2019-05-21T21:36:01.376Z,98965.53
2019-05-21T21:39:05.954Z,98955.38
2019-05-21T21:42:08.455Z,98965.14
2019-05-21T21:45:10.629Z,98962.39
2019-05-21T21:48:14.478Z,98965.83
2019-05-21T21:51:17.594Z,98973.13
2019-05-21T21:54:20.238Z,98972.53
2019-05-21T21:57:22.220Z,98963.44
2019-05-21T22:00:41.813Z,98968.75
2019-05-21T22:03:44.880Z,98957.14
2019-05-21T22:06:48.282Z,98944.00
2019-05-21T22:09:50.867Z,98945.85
2019-05-21T22:12:53.275Z,98957.64
2019-05-21T22:15:55.786Z,98955.60
2019-05-21T22:18:59.575Z,98951.22
2019-05-21T22:22:01.572Z,98940.26
2019-05-21T22:25:05.244Z,98956.48
2019-05-21T22:28:08.737Z,98951.27
2019-05-21T22:31:10.775Z,98949.66
2019-05-21T22:34:12.905Z,98951.85
2019-05-21T22:37:16.623Z,98949.42
2019-05-21T22:40:18.590Z,98938.53
2019-05-21T22:43:20.626Z,98929.27
2019-05-21T22:46:22.467Z,98938.31
2019-05-21T22:49:26.211Z,98942.23
2019-05-21T22:52:28.272Z,98948.44
2019-05-21T22:55:30.198Z,98947.92
2019-05-21T22:58:32.144Z,98935.79
2019-05-21T23:01:36.570Z,98952.67
2019-05-21T23:04:38.710Z,98924.81
2019-05-21T23:07:42.461Z,98941.25
2019-05-21T23:10:44.814Z,98944.00
2019-05-21T23:13:46.665Z,98943.05
2019-05-21T23:16:49.099Z,98948.56
2019-05-21T23:19:54.576Z,98945.78
2019-05-21T23:22:56.581Z,98949.12
2019-05-21T23:25:58.947Z,98942.05
2019-05-21T23:29:01.252Z,98953.53
2019-05-21T23:32:05.067Z,98952.52
2019-05-21T23:35:08.901Z,98953.88
2019-05-21T23:38:13.207Z,98946.92
2019-05-21T23:41:18.744Z,98941.83
2019-05-21T23:44:20.673Z,98939.95
2019-05-21T23:47:23.297Z,98938.12
2019-05-21T23:50:25.592Z,98938.68
2019-05-21T23:53:27.710Z,98941.33
2019-05-21T23:56:29.998Z,98946.45
2019-05-21T23:59:32.020Z,98941.58
